sensor_id;sensor_type;location;lat;lon;timestamp;pressure;altitude;pressure_sealevel;temperature;humidity
2000;BME280;1001;48.87406500;9.59633600;2023-02-15T00:01:30;96288.13;;;3.78;83.77
2000;BME280;1001;48.87406500;9.59633600;2023-02-15T00:03:57;96281.13;;;3.79;81.73
2000;BME280;1001;48.87406500;9.59633600;2023-02-15T00:06:24;96278.75;;;3.85;82.19
2000;BME280;1001;48.87406500;9.59633600;2023-02-15T00:08:51;96271.78;;;3.86;81.45
2000;BME280;1001;48.87406500;9.59633600;2023-02-15T00:11:18;96273.41;;;3.87;82.29
2000;BME280;1001;48.87406500;9.59633600;2023-02-15T00:14:05;96268.41;;;3.85;82.14
2000;BME280;1001;48.87406500;9.59633600;2023-02-15T00:16:33;96260.66;;;3.85;82.89
2000;BME280;1001;48.87406500;9.59633600;2023-02-15T00:19:00;96259.66;;;3.86;82.67
2000;BME280;1001;48.87406500;9.59633600;2023-02-15T00:21:28;96272.72;;;3.77;82.82
2000;BME280;1001;48.87406500;9.59633600;2023-02-15T00:23:55;96257.19;;;3.61;83.92
2000;BME280;1001;48.87406500;9.59633600;2023-02-15T00:26:21;96256.47;;;3.42;85.08
2000;BME280;1001;48.87406500;9.59633600;2023-02-15T00:28:48;96257.44;;;3.41;85.58
2000;BME280;1001;48.87406500;9.59633600;2023-02-15T00:31:15;96257.91;;;3.37;86.07
2000;BME280;1001;48.87406500;9.59633600;2023-02-15T00:33:43;96258.56;;;3.39;86.53
2000;BME280;1001;48.87406500;9.59633600;2023-02-15T00:36:11;96263.84;;;3.29;87.45
2000;BME280;1001;48.87406500;9.59633600;2023-02-15T00:38:38;96256.78;;;3.39;87.60
2000;BME280;1001;48.87406500;9.59633600;2023-02-15T00:41:07;96259.84;;;3.35;87.22
2000;BME280;1001;48.87406500;9.59633600;2023-02-15T00:43:35;96264.19;;;3.34;88.20
2000;BME280;1001;48.87406500;9.59633600;2023-02-15T00:46:02;96260.31;;;3.30;88.31
2000;BME280;1001;48.87406500;9.59633600;2023-02-15T00:48:29;96263.72;;;3.31;89.10
2000;BME280;1001;48.87406500;9.59633600;2023-02-15T00:50:58;96260.31;;;3.38;89.04
2000;BME280;1001;48.87406500;9.59633600;2023-02-15T00:53:26;96268.53;;;3.34;88.66
2000;BME280;1001;48.87406500;9.59633600;2023-02-15T00:55:53;96258.16;;;3.18;89.45
2000;BME280;1001;48.87406500;9.59633600;2023-02-15T00:58:20;96259.25;;;3.15;90.16
2000;BME280;1001;48.87406500;9.59633600;2023-02-15T01:00:47;96244.41;;;3.17;91.03
2000;BME280;1001;48.87406500;9.59633600;2023-02-15T01:03:15;96246.75;;;3.28;91.40
2000;BME280;1001;48.87406500;9.59633600;2023-02-15T01:05:41;96249.19;;;3.38;90.60
2000;BME280;1001;48.87406500;9.59633600;2023-02-15T01:08:10;96243.38;;;3.44;90.08
2000;BME280;1001;48.87406500;9.59633600;2023-02-15T01:10:36;96248.91;;;3.49;89.70
2000;BME280;1001;48.87406500;9.59633600;2023-02-15T01:13:03;96247.09;;;3.33;89.26
2000;BME280;1001;48.87406500;9.59633600;2023-02-15T01:15:30;96253.38;;;3.31;90.83
2000;BME280;1001;48.87406500;9.59633600;2023-02-15T01:17:57;96245.97;;;3.36;91.00
2000;BME280;1001;48.87406500;9.59633600;2023-02-15T01:20:25;96241.63;;;3.44;90.78
2000;BME280;1001;48.87406500;9.59633600;2023-02-15T01:22:52;96240.63;;;3.45;90.03
2000;BME280;1001;48.87406500;9.59633600;2023-02-15T01:25:22;96234.94;;;3.26;89.95
2000;BME280;1001;48.87406500;9.59633600;2023-02-15T01:27:49;96237.47;;;3.18;90.94
2000;BME280;1001;48.87406500;9.59633600;2023-02-15T01:30:16;96242.41;;;3.03;92.38
2000;BME280;1001;48.87406500;9.59633600;2023-02-15T01:32:43;96232.97;;;2.86;93.01
2000;BME280;1001;48.87406500;9.59633600;2023-02-15T01:35:11;96242.97;;;2.81;94.18
2000;BME280;1001;48.87406500;9.59633600;2023-02-15T01:37:38;96239.03;;;2.77;94.43
2000;BME280;1001;48.87406500;9.59633600;2023-02-15T01:40:07;96245.84;;;2.78;95.40
2000;BME280;1001;48.87406500;9.59633600;2023-02-15T01:42:36;96228.75;;;2.85;95.10
2000;BME280;1001;48.87406500;9.59633600;2023-02-15T01:45:05;96236.78;;;3.08;94.44
2000;BME280;1001;48.87406500;9.59633600;2023-02-15T01:47:43;96237.16;;;2.87;94.08
2000;BME280;1001;48.87406500;9.59633600;2023-02-15T01:50:13;96230.50;;;2.77;94.35
2000;BME280;1001;48.87406500;9.59633600;2023-02-15T01:52:44;96229.06;;;2.82;95.00
2000;BME280;1001;48.87406500;9.59633600;2023-02-15T01:55:15;96234.28;;;2.90;93.79
2000;BME280;1001;48.87406500;9.59633600;2023-02-15T01:57:45;96228.94;;;2.92;93.75
2000;BME280;1001;48.87406500;9.59633600;2023-02-15T02:00:13;96228.69;;;3.03;93.64
2000;BME280;1001;48.87406500;9.59633600;2023-02-15T02:02:42;96232.25;;;3.02;94.39
2000;BME280;1001;48.87406500;9.59633600;2023-02-15T02:05:10;96223.13;;;2.90;95.60
2000;BME280;1001;48.87406500;9.59633600;2023-02-15T02:07:39;96225.88;;;2.88;96.13
2000;BME280;1001;48.87406500;9.59633600;2023-02-15T02:10:07;96226.56;;;2.98;96.65
2000;BME280;1001;48.87406500;9.59633600;2023-02-15T02:12:34;96220.44;;;2.99;96.10
2000;BME280;1001;48.87406500;9.59633600;2023-02-15T02:15:06;96222.38;;;2.97;96.80
2000;BME280;1001;48.87406500;9.59633600;2023-02-15T02:17:38;96228.72;;;2.77;96.64
2000;BME280;1001;48.87406500;9.59633600;2023-02-15T02:20:22;96232.19;;;2.60;97.13
2000;BME280;1001;48.87406500;9.59633600;2023-02-15T02:23:07;96219.66;;;2.47;98.77
2000;BME280;1001;48.87406500;9.59633600;2023-02-15T02:26:00;96227.56;;;2.46;98.88
2000;BME280;1001;48.87406500;9.59633600;2023-02-15T02:28:50;96224.44;;;2.60;99.15
2000;BME280;1001;48.87406500;9.59633600;2023-02-15T02:31:35;96222.13;;;2.83;98.78
2000;BME280;1001;48.87406500;9.59633600;2023-02-15T02:34:11;96202.88;;;3.03;98.93
2000;BME280;1001;48.87406500;9.59633600;2023-02-15T02:36:46;96215.34;;;3.15;97.92
2000;BME280;1001;48.87406500;9.59633600;2023-02-15T02:39:23;96210.03;;;3.17;97.27
2000;BME280;1001;48.87406500;9.59633600;2023-02-15T02:41:59;96203.66;;;3.03;97.80
2000;BME280;1001;48.87406500;9.59633600;2023-02-15T02:44:31;96206.56;;;3.00;97.90
2000;BME280;1001;48.87406500;9.59633600;2023-02-15T02:47:07;96208.44;;;2.90;97.15
2000;BME280;1001;48.87406500;9.59633600;2023-02-15T02:49:39;96201.88;;;2.96;97.49
2000;BME280;1001;48.87406500;9.59633600;2023-02-15T02:52:31;96188.38;;;2.76;97.86
2000;BME280;1001;48.87406500;9.59633600;2023-02-15T02:54:56;96191.53;;;2.70;98.10
2000;BME280;1001;48.87406500;9.59633600;2023-02-15T02:57:23;96196.53;;;2.63;98.80
2000;BME280;1001;48.87406500;9.59633600;2023-02-15T02:59:53;96186.34;;;2.62;98.72
2000;BME280;1001;48.87406500;9.59633600;2023-02-15T03:02:24;96186.66;;;2.59;98.43
2000;BME280;1001;48.87406500;9.59633600;2023-02-15T03:04:57;96176.97;;;2.61;98.68
2000;BME280;1001;48.87406500;9.59633600;2023-02-15T03:07:29;96187.25;;;2.79;98.25
2000;BME280;1001;48.87406500;9.59633600;2023-02-15T03:09:59;96186.13;;;2.81;97.22
2000;BME280;1001;48.87406500;9.59633600;2023-02-15T03:12:28;96182.78;;;2.89;96.68
2000;BME280;1001;48.87406500;9.59633600;2023-02-15T03:15:00;96185.22;;;2.98;96.29
2000;BME280;1001;48.87406500;9.59633600;2023-02-15T03:17:31;96188.50;;;3.00;96.49
2000;BME280;1001;48.87406500;9.59633600;2023-02-15T03:20:02;96184.75;;;2.95;95.82
2000;BME280;1001;48.87406500;9.59633600;2023-02-15T03:22:34;96185.84;;;2.92;96.49
2000;BME280;1001;48.87406500;9.59633600;2023-02-15T03:25:06;96184.44;;;2.98;96.13
2000;BME280;1001;48.87406500;9.59633600;2023-02-15T03:27:38;96189.78;;;3.04;96.41
2000;BME280;1001;48.87406500;9.59633600;2023-02-15T03:30:08;96184.50;;;3.14;95.91
2000;BME280;1001;48.87406500;9.59633600;2023-02-15T03:32:39;96192.25;;;3.22;95.49
2000;BME280;1001;48.87406500;9.59633600;2023-02-15T03:35:09;96190.66;;;3.21;95.00
2000;BME280;1001;48.87406500;9.59633600;2023-02-15T03:37:39;96186.13;;;3.23;94.61
2000;BME280;1001;48.87406500;9.59633600;2023-02-15T03:40:10;96198.25;;;3.22;94.02
2000;BME280;1001;48.87406500;9.59633600;2023-02-15T03:43:01;96192.13;;;3.23;94.44
2000;BME280;1001;48.87406500;9.59633600;2023-02-15T03:45:31;96185.50;;;3.29;94.68
2000;BME280;1001;48.87406500;9.59633600;2023-02-15T03:48:00;96186.31;;;3.29;93.82
2000;BME280;1001;48.87406500;9.59633600;2023-02-15T03:50:30;96183.25;;;3.34;94.10
2000;BME280;1001;48.87406500;9.59633600;2023-02-15T03:53:18;96186.66;;;3.26;94.05
2000;BME280;1001;48.87406500;9.59633600;2023-02-15T03:55:47;96188.88;;;3.29;93.69
2000;BME280;1001;48.87406500;9.59633600;2023-02-15T03:58:14;96184.19;;;3.25;94.89
2000;BME280;1001;48.87406500;9.59633600;2023-02-15T04:01:00;96183.72;;;3.21;94.11
2000;BME280;1001;48.87406500;9.59633600;2023-02-15T04:03:51;96181.59;;;3.17;94.84
2000;BME280;1001;48.87406500;9.59633600;2023-02-15T04:06:22;96190.81;;;3.19;94.99
2000;BME280;1001;48.87406500;9.59633600;2023-02-15T04:08:48;96187.06;;;3.14;94.88
2000;BME280;1001;48.87406500;9.59633600;2023-02-15T04:11:32;96184.91;;;2.93;95.52
2000;BME280;1001;48.87406500;9.59633600;2023-02-15T04:13:59;96184.03;;;2.85;96.53
2000;BME280;1001;48.87406500;9.59633600;2023-02-15T04:16:46;96178.53;;;2.80;96.63
2000;BME280;1001;48.87406500;9.59633600;2023-02-15T04:19:11;96173.44;;;2.62;97.20
2000;BME280;1001;48.87406500;9.59633600;2023-02-15T04:21:57;96183.34;;;2.41;97.96
2000;BME280;1001;48.87406500;9.59633600;2023-02-15T04:24:41;96177.72;;;2.20;98.18
2000;BME280;1001;48.87406500;9.59633600;2023-02-15T04:27:25;96181.97;;;2.29;99.56
2000;BME280;1001;48.87406500;9.59633600;2023-02-15T04:29:51;96180.44;;;2.44;99.37
2000;BME280;1001;48.87406500;9.59633600;2023-02-15T04:32:18;96171.44;;;2.48;98.87
2000;BME280;1001;48.87406500;9.59633600;2023-02-15T04:34:45;96179.22;;;2.56;98.94
2000;BME280;1001;48.87406500;9.59633600;2023-02-15T04:37:13;96175.47;;;2.50;99.04
2000;BME280;1001;48.87406500;9.59633600;2023-02-15T04:39:39;96178.66;;;2.44;99.21
2000;BME280;1001;48.87406500;9.59633600;2023-02-15T04:42:06;96166.41;;;2.46;99.37
2000;BME280;1001;48.87406500;9.59633600;2023-02-15T04:44:33;96169.50;;;2.50;99.04
2000;BME280;1001;48.87406500;9.59633600;2023-02-15T04:46:59;96161.94;;;2.48;98.86
2000;BME280;1001;48.87406500;9.59633600;2023-02-15T04:49:26;96160.25;;;2.39;98.54
2000;BME280;1001;48.87406500;9.59633600;2023-02-15T04:51:52;96160.59;;;2.44;98.37
2000;BME280;1001;48.87406500;9.59633600;2023-02-15T04:54:21;96156.44;;;2.51;97.98
2000;BME280;1001;48.87406500;9.59633600;2023-02-15T04:56:47;96153.09;;;2.59;97.49
2000;BME280;1001;48.87406500;9.59633600;2023-02-15T04:59:14;96150.75;;;2.73;97.57
2000;BME280;1001;48.87406500;9.59633600;2023-02-15T05:01:41;96150.88;;;3.06;95.97
2000;BME280;1001;48.87406500;9.59633600;2023-02-15T05:04:08;96144.63;;;3.24;94.20
2000;BME280;1001;48.87406500;9.59633600;2023-02-15T05:06:34;96141.75;;;3.35;93.24
2000;BME280;1001;48.87406500;9.59633600;2023-02-15T05:09:01;96152.72;;;3.29;92.63
2000;BME280;1001;48.87406500;9.59633600;2023-02-15T05:11:29;96152.09;;;3.35;93.32
2000;BME280;1001;48.87406500;9.59633600;2023-02-15T05:13:56;96158.41;;;3.49;92.02
2000;BME280;1001;48.87406500;9.59633600;2023-02-15T05:16:22;96158.38;;;3.41;91.66
2000;BME280;1001;48.87406500;9.59633600;2023-02-15T05:18:50;96150.47;;;3.34;91.76
2000;BME280;1001;48.87406500;9.59633600;2023-02-15T05:21:17;96149.50;;;3.35;90.99
2000;BME280;1001;48.87406500;9.59633600;2023-02-15T05:23:43;96157.59;;;3.40;91.67
2000;BME280;1001;48.87406500;9.59633600;2023-02-15T05:26:11;96149.50;;;3.43;90.72
2000;BME280;1001;48.87406500;9.59633600;2023-02-15T05:28:57;96154.69;;;3.35;91.48
2000;BME280;1001;48.87406500;9.59633600;2023-02-15T05:31:23;96150.47;;;3.34;91.89
2000;BME280;1001;48.87406500;9.59633600;2023-02-15T05:33:50;96152.88;;;3.28;92.74
2000;BME280;1001;48.87406500;9.59633600;2023-02-15T05:36:16;96152.41;;;3.32;92.25
2000;BME280;1001;48.87406500;9.59633600;2023-02-15T05:38:43;96145.72;;;3.22;93.33
2000;BME280;1001;48.87406500;9.59633600;2023-02-15T05:41:11;96146.41;;;3.32;92.87
2000;BME280;1001;48.87406500;9.59633600;2023-02-15T05:43:38;96137.38;;;3.28;92.97
2000;BME280;1001;48.87406500;9.59633600;2023-02-15T05:46:06;96136.25;;;3.38;92.68
2000;BME280;1001;48.87406500;9.59633600;2023-02-15T05:48:34;96142.59;;;3.52;91.32
2000;BME280;1001;48.87406500;9.59633600;2023-02-15T05:51:03;96137.72;;;3.49;91.94
2000;BME280;1001;48.87406500;9.59633600;2023-02-15T05:53:31;96144.84;;;3.63;90.48
2000;BME280;1001;48.87406500;9.59633600;2023-02-15T05:55:58;96145.00;;;3.70;89.93
2000;BME280;1001;48.87406500;9.59633600;2023-02-15T05:58:25;96147.47;;;3.71;89.64
2000;BME280;1001;48.87406500;9.59633600;2023-02-15T06:00:52;96153.06;;;3.51;89.56
2000;BME280;1001;48.87406500;9.59633600;2023-02-15T06:03:21;96151.94;;;3.45;90.97
2000;BME280;1001;48.87406500;9.59633600;2023-02-15T06:05:48;96158.41;;;3.49;91.78
2000;BME280;1001;48.87406500;9.59633600;2023-02-15T06:08:14;96160.97;;;3.41;91.60
2000;BME280;1001;48.87406500;9.59633600;2023-02-15T06:10:41;96163.03;;;3.21;92.55
2000;BME280;1001;48.87406500;9.59633600;2023-02-15T06:13:08;96163.13;;;3.04;93.74
2000;BME280;1001;48.87406500;9.59633600;2023-02-15T06:15:35;96164.59;;;3.06;93.70
2000;BME280;1001;48.87406500;9.59633600;2023-02-15T06:18:02;96166.84;;;3.01;93.62
2000;BME280;1001;48.87406500;9.59633600;2023-02-15T06:20:30;96159.38;;;2.90;94.07
2000;BME280;1001;48.87406500;9.59633600;2023-02-15T06:22:57;96159.72;;;2.95;95.39
2000;BME280;1001;48.87406500;9.59633600;2023-02-15T06:25:24;96168.81;;;3.07;94.97
2000;BME280;1001;48.87406500;9.59633600;2023-02-15T06:27:50;96170.75;;;3.13;94.92
2000;BME280;1001;48.87406500;9.59633600;2023-02-15T06:30:17;96165.94;;;3.18;94.07
2000;BME280;1001;48.87406500;9.59633600;2023-02-15T06:32:44;96167.56;;;3.19;94.20
2000;BME280;1001;48.87406500;9.59633600;2023-02-15T06:35:11;96170.97;;;3.28;93.58
2000;BME280;1001;48.87406500;9.59633600;2023-02-15T06:37:39;96179.81;;;3.17;93.10
2000;BME280;1001;48.87406500;9.59633600;2023-02-15T06:40:07;96179.44;;;3.04;93.35
2000;BME280;1001;48.87406500;9.59633600;2023-02-15T06:42:34;96185.22;;;2.90;93.83
2000;BME280;1001;48.87406500;9.59633600;2023-02-15T06:45:00;96182.56;;;2.82;95.31
2000;BME280;1001;48.87406500;9.59633600;2023-02-15T06:47:27;96181.28;;;2.78;96.05
2000;BME280;1001;48.87406500;9.59633600;2023-02-15T06:49:54;96177.75;;;2.79;96.38
2000;BME280;1001;48.87406500;9.59633600;2023-02-15T06:52:20;96182.09;;;2.87;95.83
2000;BME280;1001;48.87406500;9.59633600;2023-02-15T06:54:48;96180.38;;;2.95;95.38
2000;BME280;1001;48.87406500;9.59633600;2023-02-15T06:57:15;96179.22;;;2.90;95.50
2000;BME280;1001;48.87406500;9.59633600;2023-02-15T06:59:42;96182.16;;;2.95;94.91
2000;BME280;1001;48.87406500;9.59633600;2023-02-15T07:02:09;96171.53;;;2.98;95.26
2000;BME280;1001;48.87406500;9.59633600;2023-02-15T07:04:35;96178.44;;;2.97;94.56
2000;BME280;1001;48.87406500;9.59633600;2023-02-15T07:07:02;96179.28;;;3.06;94.80
2000;BME280;1001;48.87406500;9.59633600;2023-02-15T07:09:29;96184.63;;;3.04;94.72
2000;BME280;1001;48.87406500;9.59633600;2023-02-15T07:11:57;96181.72;;;3.07;94.75
2000;BME280;1001;48.87406500;9.59633600;2023-02-15T07:14:41;96185.66;;;3.27;94.27
2000;BME280;1001;48.87406500;9.59633600;2023-02-15T07:17:07;96181.66;;;3.33;93.42
2000;BME280;1001;48.87406500;9.59633600;2023-02-15T07:19:34;96185.69;;;3.35;92.76
2000;BME280;1001;48.87406500;9.59633600;2023-02-15T07:22:01;96181.81;;;3.39;92.93
2000;BME280;1001;48.87406500;9.59633600;2023-02-15T07:24:28;96190.38;;;3.40;93.63
2000;BME280;1001;48.87406500;9.59633600;2023-02-15T07:26:56;96182.97;;;3.45;92.25
2000;BME280;1001;48.87406500;9.59633600;2023-02-15T07:29:24;96186.88;;;3.57;92.44
2000;BME280;1001;48.87406500;9.59633600;2023-02-15T07:31:50;96182.53;;;3.66;91.69
2000;BME280;1001;48.87406500;9.59633600;2023-02-15T07:34:17;96189.00;;;3.78;90.78
2000;BME280;1001;48.87406500;9.59633600;2023-02-15T07:36:44;96185.75;;;3.84;91.35
2000;BME280;1001;48.87406500;9.59633600;2023-02-15T07:39:11;96187.72;;;3.90;91.35
2000;BME280;1001;48.87406500;9.59633600;2023-02-15T07:41:37;96180.59;;;4.00;91.03
2000;BME280;1001;48.87406500;9.59633600;2023-02-15T07:44:11;96182.38;;;4.16;90.92
2000;BME280;1001;48.87406500;9.59633600;2023-02-15T07:46:39;96178.81;;;4.33;90.53
2000;BME280;1001;48.87406500;9.59633600;2023-02-15T07:49:06;96177.84;;;4.42;90.73
2000;BME280;1001;48.87406500;9.59633600;2023-02-15T07:51:33;96184.59;;;4.59;89.59
2000;BME280;1001;48.87406500;9.59633600;2023-02-15T07:54:00;96178.88;;;4.71;89.13
2000;BME280;1001;48.87406500;9.59633600;2023-02-15T07:56:26;96195.69;;;4.83;88.89
2000;BME280;1001;48.87406500;9.59633600;2023-02-15T07:58:53;96187.41;;;4.96;88.24
2000;BME280;1001;48.87406500;9.59633600;2023-02-15T08:01:24;96195.31;;;5.11;86.84
2000;BME280;1001;48.87406500;9.59633600;2023-02-15T08:03:51;96188.47;;;5.18;86.68
2000;BME280;1001;48.87406500;9.59633600;2023-02-15T08:06:19;96189.84;;;5.36;86.66
2000;BME280;1001;48.87406500;9.59633600;2023-02-15T08:08:46;96187.78;;;5.55;86.32
2000;BME280;1001;48.87406500;9.59633600;2023-02-15T08:11:18;96189.81;;;5.67;86.92
2000;BME280;1001;48.87406500;9.59633600;2023-02-15T08:14:04;96194.75;;;5.85;86.31
2000;BME280;1001;48.87406500;9.59633600;2023-02-15T08:16:35;96195.09;;;5.82;82.54
2000;BME280;1001;48.87406500;9.59633600;2023-02-15T08:19:04;96185.81;;;5.87;82.89
2000;BME280;1001;48.87406500;9.59633600;2023-02-15T08:21:32;96190.78;;;5.97;81.72
2000;BME280;1001;48.87406500;9.59633600;2023-02-15T08:24:00;96192.22;;;5.99;82.29
2000;BME280;1001;48.87406500;9.59633600;2023-02-15T08:26:28;96193.44;;;5.89;81.01
2000;BME280;1001;48.87406500;9.59633600;2023-02-15T08:28:55;96196.97;;;5.96;80.12
2000;BME280;1001;48.87406500;9.59633600;2023-02-15T08:31:22;96191.25;;;6.00;80.81
2000;BME280;1001;48.87406500;9.59633600;2023-02-15T08:33:52;96191.59;;;5.97;80.50
2000;BME280;1001;48.87406500;9.59633600;2023-02-15T08:36:21;96191.69;;;6.04;81.10
2000;BME280;1001;48.87406500;9.59633600;2023-02-15T08:38:48;96197.75;;;5.96;81.82
2000;BME280;1001;48.87406500;9.59633600;2023-02-15T08:41:18;96188.72;;;5.92;80.86
2000;BME280;1001;48.87406500;9.59633600;2023-02-15T08:43:46;96187.38;;;5.96;81.21
2000;BME280;1001;48.87406500;9.59633600;2023-02-15T08:46:15;96198.28;;;5.92;80.53
2000;BME280;1001;48.87406500;9.59633600;2023-02-15T08:48:42;96200.41;;;6.11;81.13
2000;BME280;1001;48.87406500;9.59633600;2023-02-15T08:51:12;96189.50;;;6.15;81.23
2000;BME280;1001;48.87406500;9.59633600;2023-02-15T08:53:41;96203.06;;;6.26;79.92
2000;BME280;1001;48.87406500;9.59633600;2023-02-15T08:56:08;96203.00;;;6.34;79.60
2000;BME280;1001;48.87406500;9.59633600;2023-02-15T08:58:36;96200.03;;;6.37;77.77
2000;BME280;1001;48.87406500;9.59633600;2023-02-15T09:01:08;96198.81;;;6.47;76.64
2000;BME280;1001;48.87406500;9.59633600;2023-02-15T09:03:35;96199.34;;;6.43;76.94
2000;BME280;1001;48.87406500;9.59633600;2023-02-15T09:06:02;96195.16;;;6.56;79.41
2000;BME280;1001;48.87406500;9.59633600;2023-02-15T09:08:30;96196.28;;;6.39;76.91
2000;BME280;1001;48.87406500;9.59633600;2023-02-15T09:11:05;96199.59;;;6.33;78.29
2000;BME280;1001;48.87406500;9.59633600;2023-02-15T09:13:32;96194.41;;;6.33;77.34
2000;BME280;1001;48.87406500;9.59633600;2023-02-15T09:16:04;96200.88;;;6.14;77.06
2000;BME280;1001;48.87406500;9.59633600;2023-02-15T09:18:33;96194.16;;;6.20;77.90
2000;BME280;1001;48.87406500;9.59633600;2023-02-15T09:21:04;96193.69;;;6.39;77.77
2000;BME280;1001;48.87406500;9.59633600;2023-02-15T09:23:33;96190.84;;;6.49;78.95
2000;BME280;1001;48.87406500;9.59633600;2023-02-15T09:26:03;96194.34;;;6.56;78.17
2000;BME280;1001;48.87406500;9.59633600;2023-02-15T09:28:29;96187.63;;;6.61;77.97
2000;BME280;1001;48.87406500;9.59633600;2023-02-15T09:31:04;96189.44;;;6.75;79.48
2000;BME280;1001;48.87406500;9.59633600;2023-02-15T09:33:32;96180.03;;;6.74;78.00
2000;BME280;1001;48.87406500;9.59633600;2023-02-15T09:35:59;96179.50;;;6.79;76.74
2000;BME280;1001;48.87406500;9.59633600;2023-02-15T09:38:26;96184.06;;;6.92;76.88
2000;BME280;1001;48.87406500;9.59633600;2023-02-15T09:41:02;96183.00;;;7.01;77.01
2000;BME280;1001;48.87406500;9.59633600;2023-02-15T09:43:39;96174.91;;;6.96;75.51
2000;BME280;1001;48.87406500;9.59633600;2023-02-15T09:46:19;96181.03;;;7.03;75.81
2000;BME280;1001;48.87406500;9.59633600;2023-02-15T09:48:49;96176.44;;;7.19;76.04
2000;BME280;1001;48.87406500;9.59633600;2023-02-15T09:51:34;96187.38;;;7.15;74.95
2000;BME280;1001;48.87406500;9.59633600;2023-02-15T09:54:19;96177.97;;;7.14;73.55
2000;BME280;1001;48.87406500;9.59633600;2023-02-15T09:56:53;96182.00;;;7.31;74.80
2000;BME280;1001;48.87406500;9.59633600;2023-02-15T09:59:28;96175.44;;;7.35;74.02
2000;BME280;1001;48.87406500;9.59633600;2023-02-15T10:02:09;96189.53;;;7.40;74.64
2000;BME280;1001;48.87406500;9.59633600;2023-02-15T10:04:54;96176.22;;;7.50;73.17
2000;BME280;1001;48.87406500;9.59633600;2023-02-15T10:07:37;96178.75;;;7.65;72.16
2000;BME280;1001;48.87406500;9.59633600;2023-02-15T10:10:15;96183.31;;;7.77;71.45
2000;BME280;1001;48.87406500;9.59633600;2023-02-15T10:12:57;96186.44;;;7.87;73.37
2000;BME280;1001;48.87406500;9.59633600;2023-02-15T10:15:37;96169.44;;;8.12;74.74
2000;BME280;1001;48.87406500;9.59633600;2023-02-15T10:18:34;96175.44;;;8.13;72.30
2000;BME280;1001;48.87406500;9.59633600;2023-02-15T10:21:17;96176.44;;;8.12;71.77
2000;BME280;1001;48.87406500;9.59633600;2023-02-15T10:24:07;96172.47;;;8.37;71.71
2000;BME280;1001;48.87406500;9.59633600;2023-02-15T10:26:43;96175.94;;;8.44;71.30
2000;BME280;1001;48.87406500;9.59633600;2023-02-15T10:29:18;96169.25;;;8.63;72.12
2000;BME280;1001;48.87406500;9.59633600;2023-02-15T10:31:51;96165.66;;;8.64;69.20
2000;BME280;1001;48.87406500;9.59633600;2023-02-15T10:34:26;96156.25;;;8.69;68.85
2000;BME280;1001;48.87406500;9.59633600;2023-02-15T10:37:08;96164.59;;;8.86;68.89
2000;BME280;1001;48.87406500;9.59633600;2023-02-15T10:39:48;96157.81;;;8.92;67.71
2000;BME280;1001;48.87406500;9.59633600;2023-02-15T10:42:25;96160.75;;;9.23;68.32
2000;BME280;1001;48.87406500;9.59633600;2023-02-15T10:45:10;96164.41;;;9.28;65.91
2000;BME280;1001;48.87406500;9.59633600;2023-02-15T10:47:48;96161.06;;;9.41;64.44
2000;BME280;1001;48.87406500;9.59633600;2023-02-15T10:50:30;96162.94;;;9.60;63.04
2000;BME280;1001;48.87406500;9.59633600;2023-02-15T10:53:23;96153.09;;;9.75;64.44
2000;BME280;1001;48.87406500;9.59633600;2023-02-15T10:55:56;96157.19;;;9.91;62.25
2000;BME280;1001;48.87406500;9.59633600;2023-02-15T10:58:35;96156.38;;;10.03;62.04
2000;BME280;1001;48.87406500;9.59633600;2023-02-15T11:01:13;96158.03;;;10.17;61.83
2000;BME280;1001;48.87406500;9.59633600;2023-02-15T11:04:14;96159.25;;;10.28;61.73
2000;BME280;1001;48.87406500;9.59633600;2023-02-15T11:06:50;96147.97;;;10.54;60.76
2000;BME280;1001;48.87406500;9.59633600;2023-02-15T11:09:21;96135.91;;;10.66;59.72
2000;BME280;1001;48.87406500;9.59633600;2023-02-15T11:11:51;96141.94;;;10.73;56.05
2000;BME280;1001;48.87406500;9.59633600;2023-02-15T11:14:34;96135.28;;;10.70;53.64
2000;BME280;1001;48.87406500;9.59633600;2023-02-15T11:17:06;96136.28;;;10.76;51.74
2000;BME280;1001;48.87406500;9.59633600;2023-02-15T11:19:39;96135.09;;;10.78;49.79
2000;BME280;1001;48.87406500;9.59633600;2023-02-15T11:22:09;96138.69;;;10.77;50.42
2000;BME280;1001;48.87406500;9.59633600;2023-02-15T11:24:41;96134.06;;;10.79;50.75
2000;BME280;1001;48.87406500;9.59633600;2023-02-15T11:27:19;96132.25;;;10.80;48.64
2000;BME280;1001;48.87406500;9.59633600;2023-02-15T11:29:55;96135.31;;;10.57;48.98
2000;BME280;1001;48.87406500;9.59633600;2023-02-15T11:32:27;96133.09;;;10.74;50.97
2000;BME280;1001;48.87406500;9.59633600;2023-02-15T11:34:57;96125.84;;;10.76;52.27
2000;BME280;1001;48.87406500;9.59633600;2023-02-15T11:37:34;96136.63;;;10.99;52.24
2000;BME280;1001;48.87406500;9.59633600;2023-02-15T11:40:14;96120.38;;;10.90;50.38
2000;BME280;1001;48.87406500;9.59633600;2023-02-15T11:42:42;96131.03;;;10.82;50.24
2000;BME280;1001;48.87406500;9.59633600;2023-02-15T11:45:22;96126.03;;;10.68;49.44
2000;BME280;1001;48.87406500;9.59633600;2023-02-15T11:47:53;96122.00;;;10.72;49.70
2000;BME280;1001;48.87406500;9.59633600;2023-02-15T11:50:25;96121.75;;;10.86;48.70
2000;BME280;1001;48.87406500;9.59633600;2023-02-15T11:52:54;96118.72;;;10.96;48.43
2000;BME280;1001;48.87406500;9.59633600;2023-02-15T11:55:23;96123.16;;;10.95;49.99
2000;BME280;1001;48.87406500;9.59633600;2023-02-15T11:57:54;96128.38;;;11.02;51.29
2000;BME280;1001;48.87406500;9.59633600;2023-02-15T12:00:31;96121.75;;;11.00;50.53
2000;BME280;1001;48.87406500;9.59633600;2023-02-15T12:03:06;96127.94;;;11.12;51.35
2000;BME280;1001;48.87406500;9.59633600;2023-02-15T12:05:36;96120.69;;;11.14;51.79
2000;BME280;1001;48.87406500;9.59633600;2023-02-15T12:08:13;96121.06;;;11.24;52.46
2000;BME280;1001;48.87406500;9.59633600;2023-02-15T12:10:49;96121.47;;;11.21;51.79
2000;BME280;1001;48.87406500;9.59633600;2023-02-15T12:13:20;96119.19;;;11.37;52.26